sensor_id;sensor_type;location;lat;lon;timestamp;pressure;altitude;pressure_sealevel;temperature;humidity
70815;BME280;58428;49.478;10.986;2022-11-20T00:01:17;97985.88;;;2.10;100.00
70815;BME280;58428;49.478;10.986;2022-11-20T00:03:43;97985.22;;;2.23;100.00
70815;BME280;58428;49.478;10.986;2022-11-20T00:06:12;97990.78;;;2.26;100.00
70815;BME280;58428;49.478;10.986;2022-11-20T00:08:38;97982.22;;;2.29;100.00
70815;BME280;58428;49.478;10.986;2022-11-20T00:11:06;97980.72;;;2.42;100.00
70815;BME280;58428;49.478;10.986;2022-11-20T00:13:32;97985.91;;;2.33;100.00
70815;BME280;58428;49.478;10.986;2022-11-20T00:16:01;97983.59;;;1.99;100.00
70815;BME280;58428;49.478;10.986;2022-11-20T00:18:27;97989.09;;;1.84;100.00
70815;BME280;58428;49.478;10.986;2022-11-20T00:21:03;97983.78;;;2.07;100.00
70815;BME280;58428;49.478;10.986;2022-11-20T00:23:29;97979.31;;;2.26;100.00
70815;BME280;58428;49.478;10.986;2022-11-20T00:25:55;97968.31;;;2.32;100.00
70815;BME280;58428;49.478;10.986;2022-11-20T00:28:20;97974.59;;;2.41;100.00
70815;BME280;58428;49.478;10.986;2022-11-20T00:30:45;97981.31;;;2.39;100.00
70815;BME280;58428;49.478;10.986;2022-11-20T00:33:16;97983.81;;;2.30;100.00
70815;BME280;58428;49.478;10.986;2022-11-20T00:35:42;97988.72;;;2.42;100.00
70815;BME280;58428;49.478;10.986;2022-11-20T00:38:07;97977.72;;;2.25;100.00
70815;BME280;58428;49.478;10.986;2022-11-20T00:40:33;97981.84;;;2.36;100.00
70815;BME280;58428;49.478;10.986;2022-11-20T00:43:00;97983.63;;;2.22;100.00
70815;BME280;58428;49.478;10.986;2022-11-20T00:45:25;97995.66;;;2.19;100.00
70815;BME280;58428;49.478;10.986;2022-11-20T00:47:50;97993.97;;;2.05;100.00
70815;BME280;58428;49.478;10.986;2022-11-20T00:50:16;97985.59;;;2.12;100.00
70815;BME280;58428;49.478;10.986;2022-11-20T00:52:41;97984.34;;;2.04;100.00
70815;BME280;58428;49.478;10.986;2022-11-20T00:55:07;97979.16;;;1.89;100.00
70815;BME280;58428;49.478;10.986;2022-11-20T00:57:32;97974.56;;;1.95;100.00
70815;BME280;58428;49.478;10.986;2022-11-20T00:59:58;97981.78;;;1.94;100.00
70815;BME280;58428;49.478;10.986;2022-11-20T01:02:24;97984.19;;;1.96;100.00
70815;BME280;58428;49.478;10.986;2022-11-20T01:04:49;97973.25;;;1.92;100.00
70815;BME280;58428;49.478;10.986;2022-11-20T01:07:14;97972.31;;;2.07;100.00
70815;BME280;58428;49.478;10.986;2022-11-20T01:09:41;97982.19;;;2.06;100.00
70815;BME280;58428;49.478;10.986;2022-11-20T01:12:07;97978.97;;;2.09;100.00
70815;BME280;58428;49.478;10.986;2022-11-20T01:14:32;97982.94;;;2.12;100.00
70815;BME280;58428;49.478;10.986;2022-11-20T01:16:58;97980.69;;;2.23;100.00
70815;BME280;58428;49.478;10.986;2022-11-20T01:19:23;97989.97;;;2.26;100.00
70815;BME280;58428;49.478;10.986;2022-11-20T01:21:53;97986.88;;;2.42;100.00
70815;BME280;58428;49.478;10.986;2022-11-20T01:24:20;97983.13;;;2.43;100.00
70815;BME280;58428;49.478;10.986;2022-11-20T01:26:48;97986.13;;;2.37;100.00
70815;BME280;58428;49.478;10.986;2022-11-20T01:29:16;97983.75;;;2.35;100.00
70815;BME280;58428;49.478;10.986;2022-11-20T01:31:44;97989.56;;;2.42;100.00
70815;BME280;58428;49.478;10.986;2022-11-20T01:34:12;97992.22;;;2.42;100.00
70815;BME280;58428;49.478;10.986;2022-11-20T01:36:39;97986.06;;;2.42;100.00
70815;BME280;58428;49.478;10.986;2022-11-20T01:39:13;97986.00;;;2.47;100.00
70815;BME280;58428;49.478;10.986;2022-11-20T01:41:41;97975.44;;;2.60;100.00
70815;BME280;58428;49.478;10.986;2022-11-20T01:44:55;97970.97;;;2.56;100.00
70815;BME280;58428;49.478;10.986;2022-11-20T01:47:29;97975.22;;;2.33;100.00
70815;BME280;58428;49.478;10.986;2022-11-20T01:50:22;97973.47;;;2.24;100.00
70815;BME280;58428;49.478;10.986;2022-11-20T01:53:17;97966.16;;;2.34;100.00
70815;BME280;58428;49.478;10.986;2022-11-20T01:55:55;97970.78;;;2.47;100.00
70815;BME280;58428;49.478;10.986;2022-11-20T01:58:28;97967.25;;;2.52;100.00
70815;BME280;58428;49.478;10.986;2022-11-20T02:00:55;97962.59;;;2.62;100.00
70815;BME280;58428;49.478;10.986;2022-11-20T02:03:21;97961.97;;;2.70;100.00
70815;BME280;58428;49.478;10.986;2022-11-20T02:06:10;97966.00;;;2.67;100.00
70815;BME280;58428;49.478;10.986;2022-11-20T02:08:38;97956.84;;;2.73;100.00
70815;BME280;58428;49.478;10.986;2022-11-20T02:11:03;97964.19;;;2.63;100.00
70815;BME280;58428;49.478;10.986;2022-11-20T02:13:29;97963.88;;;2.46;100.00
70815;BME280;58428;49.478;10.986;2022-11-20T02:16:30;97969.25;;;2.41;100.00
70815;BME280;58428;49.478;10.986;2022-11-20T02:18:59;97973.81;;;2.41;100.00
70815;BME280;58428;49.478;10.986;2022-11-20T02:24:06;97974.94;;;2.35;100.00
70815;BME280;58428;49.478;10.986;2022-11-20T02:26:59;97971.41;;;2.39;100.00
70815;BME280;58428;49.478;10.986;2022-11-20T02:29:32;97968.25;;;2.37;100.00
70815;BME280;58428;49.478;10.986;2022-11-20T02:32:00;97972.31;;;2.30;100.00
70815;BME280;58428;49.478;10.986;2022-11-20T02:34:27;97965.41;;;2.29;100.00
70815;BME280;58428;49.478;10.986;2022-11-20T02:36:55;97966.44;;;2.33;100.00
70815;BME280;58428;49.478;10.986;2022-11-20T02:39:23;97952.47;;;2.41;100.00
70815;BME280;58428;49.478;10.986;2022-11-20T02:41:52;97957.16;;;2.49;100.00
70815;BME280;58428;49.478;10.986;2022-11-20T02:44:17;97961.09;;;2.56;100.00
70815;BME280;58428;49.478;10.986;2022-11-20T02:46:44;97957.25;;;2.62;100.00
70815;BME280;58428;49.478;10.986;2022-11-20T02:49:11;97956.16;;;2.63;100.00
70815;BME280;58428;49.478;10.986;2022-11-20T02:51:36;97956.75;;;2.60;100.00
70815;BME280;58428;49.478;10.986;2022-11-20T02:54:02;97953.97;;;2.47;100.00
70815;BME280;58428;49.478;10.986;2022-11-20T02:56:28;97952.78;;;2.57;100.00
70815;BME280;58428;49.478;10.986;2022-11-20T02:58:54;97955.34;;;2.67;100.00
70815;BME280;58428;49.478;10.986;2022-11-20T03:01:19;97952.31;;;2.74;100.00
70815;BME280;58428;49.478;10.986;2022-11-20T03:03:45;97948.03;;;2.73;100.00
70815;BME280;58428;49.478;10.986;2022-11-20T03:06:15;97960.56;;;2.54;100.00
70815;BME280;58428;49.478;10.986;2022-11-20T03:08:42;97950.41;;;2.56;100.00
70815;BME280;58428;49.478;10.986;2022-11-20T03:11:08;97947.59;;;2.66;100.00
70815;BME280;58428;49.478;10.986;2022-11-20T03:13:34;97944.69;;;2.62;100.00
70815;BME280;58428;49.478;10.986;2022-11-20T03:16:10;97946.34;;;2.40;100.00
70815;BME280;58428;49.478;10.986;2022-11-20T03:18:38;97944.28;;;2.32;100.00
70815;BME280;58428;49.478;10.986;2022-11-20T03:21:04;97947.75;;;2.33;100.00
70815;BME280;58428;49.478;10.986;2022-11-20T03:23:30;97942.72;;;2.26;100.00
70815;BME280;58428;49.478;10.986;2022-11-20T03:26:16;97946.44;;;2.30;100.00
70815;BME280;58428;49.478;10.986;2022-11-20T03:28:45;97941.28;;;2.39;100.00
70815;BME280;58428;49.478;10.986;2022-11-20T03:31:13;97941.16;;;2.49;100.00
70815;BME280;58428;49.478;10.986;2022-11-20T03:33:41;97951.69;;;2.58;100.00
70815;BME280;58428;49.478;10.986;2022-11-20T03:36:12;97940.50;;;2.56;100.00
70815;BME280;58428;49.478;10.986;2022-11-20T03:38:38;97944.16;;;2.65;100.00
70815;BME280;58428;49.478;10.986;2022-11-20T03:41:09;97939.72;;;2.74;100.00
70815;BME280;58428;49.478;10.986;2022-11-20T03:43:38;97941.34;;;2.75;100.00
70815;BME280;58428;49.478;10.986;2022-11-20T03:46:05;97936.13;;;2.65;100.00
70815;BME280;58428;49.478;10.986;2022-11-20T03:48:31;97935.53;;;2.68;100.00
70815;BME280;58428;49.478;10.986;2022-11-20T03:51:15;97928.41;;;2.64;100.00
70815;BME280;58428;49.478;10.986;2022-11-20T03:53:42;97929.66;;;2.71;100.00
70815;BME280;58428;49.478;10.986;2022-11-20T03:56:09;97926.19;;;2.48;100.00
70815;BME280;58428;49.478;10.986;2022-11-20T03:58:35;97923.75;;;2.51;100.00
70815;BME280;58428;49.478;10.986;2022-11-20T04:01:09;97931.19;;;2.54;100.00
70815;BME280;58428;49.478;10.986;2022-11-20T04:03:36;97930.09;;;2.37;100.00
70815;BME280;58428;49.478;10.986;2022-11-20T04:06:08;97931.03;;;2.22;100.00
70815;BME280;58428;49.478;10.986;2022-11-20T04:08:34;97924.16;;;2.17;100.00
70815;BME280;58428;49.478;10.986;2022-11-20T04:13:42;97927.22;;;2.52;100.00
70815;BME280;58428;49.478;10.986;2022-11-20T04:16:12;97923.69;;;2.56;100.00
70815;BME280;58428;49.478;10.986;2022-11-20T04:18:37;97925.00;;;2.58;100.00
70815;BME280;58428;49.478;10.986;2022-11-20T04:21:04;97926.59;;;2.59;100.00
70815;BME280;58428;49.478;10.986;2022-11-20T04:23:30;97920.81;;;2.71;100.00
70815;BME280;58428;49.478;10.986;2022-11-20T04:26:05;97919.47;;;2.73;100.00
70815;BME280;58428;49.478;10.986;2022-11-20T04:28:31;97918.31;;;2.79;100.00
70815;BME280;58428;49.478;10.986;2022-11-20T04:31:18;97908.97;;;2.77;100.00
70815;BME280;58428;49.478;10.986;2022-11-20T04:33:44;97910.00;;;2.81;100.00
70815;BME280;58428;49.478;10.986;2022-11-20T04:36:20;97909.94;;;2.67;100.00
70815;BME280;58428;49.478;10.986;2022-11-20T04:38:46;97917.06;;;2.72;100.00
70815;BME280;58428;49.478;10.986;2022-11-20T04:41:18;97911.50;;;2.68;100.00
70815;BME280;58428;49.478;10.986;2022-11-20T04:43:49;97917.69;;;2.46;100.00
70815;BME280;58428;49.478;10.986;2022-11-20T04:46:16;97917.50;;;2.60;100.00
70815;BME280;58428;49.478;10.986;2022-11-20T04:48:43;97914.03;;;2.60;100.00
70815;BME280;58428;49.478;10.986;2022-11-20T04:51:08;97919.75;;;2.72;100.00
70815;BME280;58428;49.478;10.986;2022-11-20T04:53:34;97916.72;;;2.78;100.00
70815;BME280;58428;49.478;10.986;2022-11-20T04:56:01;97915.56;;;2.84;100.00
70815;BME280;58428;49.478;10.986;2022-11-20T04:58:28;97915.00;;;2.87;100.00
70815;BME280;58428;49.478;10.986;2022-11-20T05:01:01;97913.88;;;2.88;100.00
70815;BME280;58428;49.478;10.986;2022-11-20T05:03:27;97910.06;;;2.76;100.00
70815;BME280;58428;49.478;10.986;2022-11-20T05:05:53;97906.47;;;2.85;100.00
70815;BME280;58428;49.478;10.986;2022-11-20T05:08:18;97918.16;;;2.89;100.00
70815;BME280;58428;49.478;10.986;2022-11-20T05:10:43;97913.81;;;2.56;100.00
70815;BME280;58428;49.478;10.986;2022-11-20T05:13:09;97908.91;;;2.63;100.00
70815;BME280;58428;49.478;10.986;2022-11-20T05:15:34;97904.94;;;2.61;100.00
70815;BME280;58428;49.478;10.986;2022-11-20T05:18:00;97916.91;;;2.22;100.00
70815;BME280;58428;49.478;10.986;2022-11-20T05:20:26;97914.44;;;2.30;100.00
70815;BME280;58428;49.478;10.986;2022-11-20T05:22:51;97909.38;;;2.47;100.00
70815;BME280;58428;49.478;10.986;2022-11-20T05:25:18;97917.13;;;2.49;100.00
70815;BME280;58428;49.478;10.986;2022-11-20T05:27:43;97909.97;;;2.44;100.00
70815;BME280;58428;49.478;10.986;2022-11-20T05:30:09;97918.78;;;2.45;100.00
70815;BME280;58428;49.478;10.986;2022-11-20T05:32:36;97908.47;;;2.56;100.00
70815;BME280;58428;49.478;10.986;2022-11-20T05:35:03;97899.31;;;2.62;100.00
70815;BME280;58428;49.478;10.986;2022-11-20T05:37:29;97895.56;;;2.63;100.00
70815;BME280;58428;49.478;10.986;2022-11-20T05:39:56;97884.88;;;2.63;100.00
70815;BME280;58428;49.478;10.986;2022-11-20T05:42:21;97882.88;;;2.74;100.00
70815;BME280;58428;49.478;10.986;2022-11-20T05:45:00;97883.59;;;2.79;100.00
70815;BME280;58428;49.478;10.986;2022-11-20T05:47:28;97885.72;;;2.59;100.00
70815;BME280;58428;49.478;10.986;2022-11-20T05:49:57;97878.13;;;2.48;100.00
70815;BME280;58428;49.478;10.986;2022-11-20T05:52:22;97879.59;;;2.58;100.00
70815;BME280;58428;49.478;10.986;2022-11-20T05:54:48;97881.78;;;2.56;100.00
70815;BME280;58428;49.478;10.986;2022-11-20T05:57:13;97877.66;;;2.64;100.00
70815;BME280;58428;49.478;10.986;2022-11-20T05:59:39;97883.28;;;2.62;100.00
70815;BME280;58428;49.478;10.986;2022-11-20T06:02:05;97884.44;;;2.56;100.00
70815;BME280;58428;49.478;10.986;2022-11-20T06:04:30;97880.53;;;2.49;100.00
70815;BME280;58428;49.478;10.986;2022-11-20T06:06:57;97874.22;;;2.63;100.00
70815;BME280;58428;49.478;10.986;2022-11-20T06:09:22;97876.56;;;2.65;100.00
70815;BME280;58428;49.478;10.986;2022-11-20T06:11:47;97879.84;;;2.62;100.00
70815;BME280;58428;49.478;10.986;2022-11-20T06:14:14;97883.59;;;2.79;100.00
70815;BME280;58428;49.478;10.986;2022-11-20T06:16:39;97876.13;;;2.76;100.00
70815;BME280;58428;49.478;10.986;2022-11-20T06:19:05;97885.41;;;2.65;100.00
70815;BME280;58428;49.478;10.986;2022-11-20T06:21:30;97885.44;;;2.60;100.00
70815;BME280;58428;49.478;10.986;2022-11-20T06:23:56;97885.53;;;2.56;100.00
70815;BME280;58428;49.478;10.986;2022-11-20T06:26:23;97884.50;;;2.52;100.00
70815;BME280;58428;49.478;10.986;2022-11-20T06:28:52;97889.56;;;2.53;100.00
70815;BME280;58428;49.478;10.986;2022-11-20T06:31:22;97884.56;;;2.47;100.00
70815;BME280;58428;49.478;10.986;2022-11-20T06:33:48;97888.94;;;2.38;100.00
70815;BME280;58428;49.478;10.986;2022-11-20T06:36:16;97882.28;;;2.58;100.00
70815;BME280;58428;49.478;10.986;2022-11-20T06:38:42;97884.53;;;2.70;100.00
70815;BME280;58428;49.478;10.986;2022-11-20T06:41:13;97886.47;;;2.64;100.00
70815;BME280;58428;49.478;10.986;2022-11-20T06:43:39;97893.09;;;2.49;100.00
70815;BME280;58428;49.478;10.986;2022-11-20T06:46:06;97902.34;;;2.56;100.00
70815;BME280;58428;49.478;10.986;2022-11-20T06:48:32;97901.22;;;2.39;100.00
70815;BME280;58428;49.478;10.986;2022-11-20T06:50:58;97903.94;;;2.34;100.00
70815;BME280;58428;49.478;10.986;2022-11-20T06:53:24;97903.03;;;2.43;100.00
70815;BME280;58428;49.478;10.986;2022-11-20T06:55:51;97901.75;;;2.41;100.00
70815;BME280;58428;49.478;10.986;2022-11-20T06:58:17;97903.34;;;2.60;100.00
70815;BME280;58428;49.478;10.986;2022-11-20T07:00:43;97906.41;;;2.72;100.00
70815;BME280;58428;49.478;10.986;2022-11-20T07:03:11;97903.84;;;2.80;100.00
70815;BME280;58428;49.478;10.986;2022-11-20T07:05:37;97900.53;;;2.88;100.00
70815;BME280;58428;49.478;10.986;2022-11-20T07:08:04;97899.88;;;2.96;100.00
70815;BME280;58428;49.478;10.986;2022-11-20T07:10:30;97905.97;;;2.83;100.00
70815;BME280;58428;49.478;10.986;2022-11-20T07:12:56;97902.06;;;2.76;100.00
70815;BME280;58428;49.478;10.986;2022-11-20T07:15:23;97912.09;;;2.65;100.00
70815;BME280;58428;49.478;10.986;2022-11-20T07:17:49;97912.59;;;2.67;100.00
70815;BME280;58428;49.478;10.986;2022-11-20T07:20:15;97910.31;;;2.79;100.00
70815;BME280;58428;49.478;10.986;2022-11-20T07:22:40;97910.06;;;2.57;100.00
70815;BME280;58428;49.478;10.986;2022-11-20T07:25:09;97917.88;;;2.72;100.00
70815;BME280;58428;49.478;10.986;2022-11-20T07:27:35;97920.03;;;2.70;100.00
70815;BME280;58428;49.478;10.986;2022-11-20T07:30:04;97912.09;;;2.84;100.00
70815;BME280;58428;49.478;10.986;2022-11-20T07:32:30;97911.72;;;2.90;100.00
70815;BME280;58428;49.478;10.986;2022-11-20T07:34:56;97908.88;;;2.87;100.00
70815;BME280;58428;49.478;10.986;2022-11-20T07:37:21;97911.53;;;2.87;100.00
70815;BME280;58428;49.478;10.986;2022-11-20T07:39:46;97907.47;;;2.89;100.00
70815;BME280;58428;49.478;10.986;2022-11-20T07:42:13;97906.72;;;3.02;100.00
70815;BME280;58428;49.478;10.986;2022-11-20T07:44:39;97907.06;;;3.00;100.00
70815;BME280;58428;49.478;10.986;2022-11-20T07:47:04;97911.06;;;2.98;100.00
70815;BME280;58428;49.478;10.986;2022-11-20T07:49:30;97912.97;;;2.97;100.00
70815;BME280;58428;49.478;10.986;2022-11-20T07:51:56;97917.56;;;2.92;100.00
70815;BME280;58428;49.478;10.986;2022-11-20T07:54:22;97916.13;;;2.99;100.00
70815;BME280;58428;49.478;10.986;2022-11-20T07:56:50;97910.94;;;3.08;100.00
70815;BME280;58428;49.478;10.986;2022-11-20T07:59:16;97920.88;;;3.21;100.00
70815;BME280;58428;49.478;10.986;2022-11-20T08:01:42;97918.88;;;3.31;100.00
70815;BME280;58428;49.478;10.986;2022-11-20T08:04:09;97921.22;;;3.32;100.00
70815;BME280;58428;49.478;10.986;2022-11-20T08:06:36;97916.19;;;3.31;100.00
70815;BME280;58428;49.478;10.986;2022-11-20T08:09:02;97918.22;;;3.52;100.00
70815;BME280;58428;49.478;10.986;2022-11-20T08:11:28;97912.25;;;3.42;100.00
70815;BME280;58428;49.478;10.986;2022-11-20T08:14:13;97915.09;;;3.32;100.00
70815;BME280;58428;49.478;10.986;2022-11-20T08:16:39;97920.88;;;3.21;100.00
70815;BME280;58428;49.478;10.986;2022-11-20T08:19:05;97914.81;;;3.33;100.00
70815;BME280;58428;49.478;10.986;2022-11-20T08:21:31;97914.38;;;3.27;100.00
70815;BME280;58428;49.478;10.986;2022-11-20T08:23:57;97917.66;;;3.24;100.00
70815;BME280;58428;49.478;10.986;2022-11-20T08:26:23;97911.97;;;3.12;100.00
70815;BME280;58428;49.478;10.986;2022-11-20T08:28:53;97923.78;;;3.24;100.00
70815;BME280;58428;49.478;10.986;2022-11-20T08:31:19;97915.81;;;3.19;100.00
70815;BME280;58428;49.478;10.986;2022-11-20T08:33:44;97914.09;;;3.28;100.00
70815;BME280;58428;49.478;10.986;2022-11-20T08:36:10;97907.00;;;3.37;100.00
70815;BME280;58428;49.478;10.986;2022-11-20T08:38:37;97914.94;;;3.42;100.00
70815;BME280;58428;49.478;10.986;2022-11-20T08:41:04;97907.50;;;3.39;100.00
70815;BME280;58428;49.478;10.986;2022-11-20T08:43:54;97905.88;;;3.56;100.00
70815;BME280;58428;49.478;10.986;2022-11-20T08:46:21;97908.56;;;3.56;100.00
70815;BME280;58428;49.478;10.986;2022-11-20T08:48:46;97909.06;;;3.58;100.00
70815;BME280;58428;49.478;10.986;2022-11-20T08:51:13;97907.19;;;3.72;100.00
70815;BME280;58428;49.478;10.986;2022-11-20T08:53:39;97905.81;;;3.74;100.00
70815;BME280;58428;49.478;10.986;2022-11-20T08:56:05;97904.03;;;3.70;100.00
70815;BME280;58428;49.478;10.986;2022-11-20T08:58:31;97914.63;;;3.75;100.00
70815;BME280;58428;49.478;10.986;2022-11-20T09:00:56;97918.38;;;3.61;100.00
70815;BME280;58428;49.478;10.986;2022-11-20T09:03:23;97909.69;;;3.50;100.00
70815;BME280;58428;49.478;10.986;2022-11-20T09:05:48;97911.00;;;3.53;100.00
70815;BME280;58428;49.478;10.986;2022-11-20T09:08:14;97914.84;;;3.47;100.00
70815;BME280;58428;49.478;10.986;2022-11-20T09:10:39;97911.84;;;3.35;100.00
70815;BME280;58428;49.478;10.986;2022-11-20T09:13:05;97900.94;;;3.31;100.00
70815;BME280;58428;49.478;10.986;2022-11-20T09:15:32;97904.78;;;3.57;100.00
70815;BME280;58428;49.478;10.986;2022-11-20T09:18:02;97900.56;;;3.83;100.00
70815;BME280;58428;49.478;10.986;2022-11-20T09:20:30;97895.63;;;3.90;100.00
70815;BME280;58428;49.478;10.986;2022-11-20T09:22:57;97889.88;;;3.83;100.00
70815;BME280;58428;49.478;10.986;2022-11-20T09:25:22;97879.38;;;3.86;100.00
70815;BME280;58428;49.478;10.986;2022-11-20T09:27:48;97895.19;;;3.69;100.00
70815;BME280;58428;49.478;10.986;2022-11-20T09:30:15;97891.16;;;3.72;100.00
70815;BME280;58428;49.478;10.986;2022-11-20T09:32:41;97885.81;;;3.85;100.00
70815;BME280;58428;49.478;10.986;2022-11-20T09:35:08;97876.50;;;4.09;100.00
70815;BME280;58428;49.478;10.986;2022-11-20T09:37:34;97880.19;;;4.13;100.00
70815;BME280;58428;49.478;10.986;2022-11-20T09:40:00;97890.31;;;4.16;100.00
70815;BME280;58428;49.478;10.986;2022-11-20T09:42:58;97891.19;;;4.25;100.00
70815;BME280;58428;49.478;10.986;2022-11-20T09:51:46;97899.41;;;4.02;100.00
70815;BME280;58428;49.478;10.986;2022-11-20T09:54:39;97900.97;;;3.90;100.00
70815;BME280;58428;49.478;10.986;2022-11-20T09:59:57;97910.28;;;3.92;100.00
70815;BME280;58428;49.478;10.986;2022-11-20T10:02:30;97903.78;;;4.11;100.00
70815;BME280;58428;49.478;10.986;2022-11-20T10:07:39;97897.44;;;4.07;100.00
70815;BME280;58428;49.478;10.986;2022-11-20T10:10:17;97897.44;;;4.07;100.00
70815;BME280;58428;49.478;10.986;2022-11-20T10:15:45;97880.19;;;4.27;100.00
70815;BME280;58428;49.478;10.986;2022-11-20T10:21:27;97873.13;;;4.31;100.00
70815;BME280;58428;49.478;10.986;2022-11-20T10:29:47;97875.72;;;4.36;100.00
70815;BME280;58428;49.478;10.986;2022-11-20T10:32:18;97873.31;;;4.61;100.00
70815;BME280;58428;49.478;10.986;2022-11-20T10:34:57;97875.16;;;4.60;100.00
70815;BME280;58428;49.478;10.986;2022-11-20T10:37:31;97865.94;;;4.66;100.00
70815;BME280;58428;49.478;10.986;2022-11-20T10:42:50;97863.47;;;4.91;100.00
70815;BME280;58428;49.478;10.986;2022-11-20T10:45:31;97855.59;;;4.73;100.00
70815;BME280;58428;49.478;10.986;2022-11-20T10:48:12;97855.41;;;4.70;100.00
70815;BME280;58428;49.478;10.986;2022-11-20T10:51:28;97858.00;;;4.75;100.00
70815;BME280;58428;49.478;10.986;2022-11-20T10:56:41;97850.25;;;4.73;100.00
70815;BME280;58428;49.478;10.986;2022-11-20T11:01:50;97846.69;;;4.64;100.00
70815;BME280;58428;49.478;10.986;2022-11-20T11:04:40;97849.38;;;4.51;100.00
70815;BME280;58428;49.478;10.986;2022-11-20T11:07:30;97852.00;;;4.42;100.00
70815;BME280;58428;49.478;10.986;2022-11-20T11:09:58;97844.38;;;4.36;100.00
70815;BME280;58428;49.478;10.986;2022-11-20T11:12:25;97849.81;;;4.31;100.00
70815;BME280;58428;49.478;10.986;2022-11-20T11:14:56;97852.41;;;4.23;100.00
70815;BME280;58428;49.478;10.986;2022-11-20T11:17:25;97908.75;;;4.04;100.00
70815;BME280;58428;49.478;10.986;2022-11-20T11:20:24;97919.47;;;3.73;100.00
70815;BME280;58428;49.478;10.986;2022-11-20T11:22:58;97893.75;;;3.45;100.00
70815;BME280;58428;49.478;10.986;2022-11-20T11:27:51;97874.28;;;3.58;100.00
70815;BME280;58428;49.478;10.986;2022-11-20T11:30:19;97883.00;;;3.64;100.00
70815;BME280;58428;49.478;10.986;2022-11-20T11:32:45;97875.50;;;3.79;100.00
70815;BME280;58428;49.478;10.986;2022-11-20T11:35:25;97875.78;;;3.91;100.00
70815;BME280;58428;49.478;10.986;2022-11-20T11:38:11;97862.13;;;3.92;100.00
70815;BME280;58428;49.478;10.986;2022-11-20T11:40:40;97867.00;;;4.17;100.00
70815;BME280;58428;49.478;10.986;2022-11-20T11:43:20;97868.56;;;4.44;100.00
70815;BME280;58428;49.478;10.986;2022-11-20T11:46:32;97871.03;;;4.28;100.00
70815;BME280;58428;49.478;10.986;2022-11-20T11:51:34;97846.25;;;4.36;100.00
70815;BME280;58428;49.478;10.986;2022-11-20T11:54:10;97849.22;;;4.47;100.00
70815;BME280;58428;49.478;10.986;2022-11-20T11:56:38;97853.56;;;4.57;100.00
70815;BME280;58428;49.478;10.986;2022-11-20T11:59:22;97857.31;;;4.56;100.00
70815;BME280;58428;49.478;10.986;2022-11-20T12:01:56;97855.06;;;4.49;100.00
70815;BME280;58428;49.478;10.986;2022-11-20T12:04:48;97861.38;;;4.67;100.00
70815;BME280;58428;49.478;10.986;2022-11-20T12:07:46;97853.72;;;4.74;100.00
70815;BME280;58428;49.478;10.986;2022-11-20T12:15:44;97853.09;;;4.90;100.00
70815;BME280;58428;49.478;10.986;2022-11-20T12:18:16;97856.41;;;4.95;100.00
70815;BME280;58428;49.478;10.986;2022-11-20T12:21:01;97866.47;;;4.90;100.00
70815;BME280;58428;49.478;10.986;2022-11-20T12:24:02;97864.44;;;4.95;100.00
70815;BME280;58428;49.478;10.986;2022-11-20T12:29:52;97858.78;;;4.97;100.00
70815;BME280;58428;49.478;10.986;2022-11-20T12:44:01;97836.38;;;5.36;100.00
70815;BME280;58428;49.478;10.986;2022-11-20T12:46:49;97839.53;;;5.16;100.00
70815;BME280;58428;49.478;10.986;2022-11-20T12:49:32;97842.28;;;5.03;100.00
70815;BME280;58428;49.478;10.986;2022-11-20T12:52:25;97838.13;;;4.97;100.00
70815;BME280;58428;49.478;10.986;2022-11-20T12:55:08;97840.28;;;5.09;100.00
70815;BME280;58428;49.478;10.986;2022-11-20T12:57:55;97834.88;;;5.00;100.00
70815;BME280;58428;49.478;10.986;2022-11-20T13:00:23;97836.50;;;4.88;100.00
70815;BME280;58428;49.478;10.986;2022-11-20T13:08:54;97823.84;;;4.80;100.00
70815;BME280;58428;49.478;10.986;2022-11-20T13:17:17;97832.78;;;4.97;100.00
70815;BME280;58428;49.478;10.986;2022-11-20T13:19:54;97827.59;;;4.79;100.00
70815;BME280;58428;49.478;10.986;2022-11-20T13:22:45;97829.19;;;4.80;100.00
70815;BME280;58428;49.478;10.986;2022-11-20T13:25:32;97833.16;;;4.82;100.00
70815;BME280;58428;49.478;10.986;2022-11-20T13:28:00;97833.63;;;4.84;100.00
70815;BME280;58428;49.478;10.986;2022-11-20T13:30:29;97836.91;;;4.81;100.00
70815;BME280;58428;49.478;10.986;2022-11-20T13:33:08;97833.63;;;4.84;100.00
70815;BME280;58428;49.478;10.986;2022-11-20T13:35:40;97828.63;;;4.91;100.00
70815;BME280;58428;49.478;10.986;2022-11-20T13:38:07;97827.06;;;4.90;100.00
70815;BME280;58428;49.478;10.986;2022-11-20T13:40:35;97832.03;;;4.83;100.00
70815;BME280;58428;49.478;10.986;2022-11-20T13:43:14;97833.75;;;4.79;100.00
70815;BME280;58428;49.478;10.986;2022-11-20T13:45:41;97842.78;;;4.70;100.00
70815;BME280;58428;49.478;10.986;2022-11-20T13:48:40;97857.66;;;4.76;100.00
70815;BME280;58428;49.478;10.986;2022-11-20T13:51:34;97853.50;;;4.70;100.00
70815;BME280;58428;49.478;10.986;2022-11-20T13:57:26;97837.13;;;4.72;100.00
70815;BME280;58428;49.478;10.986;2022-11-20T14:00:14;97839.03;;;4.71;100.00
70815;BME280;58428;49.478;10.986;2022-11-20T14:02:40;97830.81;;;4.68;100.00
70815;BME280;58428;49.478;10.986;2022-11-20T14:05:11;97828.03;;;4.73;100.00
70815;BME280;58428;49.478;10.986;2022-11-20T14:07:42;97829.53;;;4.65;100.00
70815;BME280;58428;49.478;10.986;2022-11-20T14:10:21;97830.50;;;4.69;100.00
70815;BME280;58428;49.478;10.986;2022-11-20T14:12:47;97821.44;;;4.78;100.00
70815;BME280;58428;49.478;10.986;2022-11-20T14:15:30;97821.44;;;4.78;100.00
70815;BME280;58428;49.478;10.986;2022-11-20T14:17:58;97823.38;;;4.65;100.00
70815;BME280;58428;49.478;10.986;2022-11-20T14:20:28;97823.25;;;4.70;100.00
70815;BME280;58428;49.478;10.986;2022-11-20T14:22:56;97830.22;;;4.71;100.00
70815;BME280;58428;49.478;10.986;2022-11-20T14:25:26;97829.00;;;4.76;100.00